createdAt,value
2022-09-18T00:01:11.270Z,53.80
2022-09-18T00:03:39.565Z,53.80
2022-09-18T00:06:13.143Z,53.80
2022-09-18T00:08:41.233Z,53.90
2022-09-18T00:11:10.482Z,53.80
2022-09-18T00:13:38.865Z,53.80
2022-09-18T00:16:08.137Z,53.80
2022-09-18T00:18:35.626Z,53.80
2022-09-18T00:21:13.356Z,53.80
2022-09-18T00:23:41.726Z,53.80
2022-09-18T00:26:11.300Z,53.80
2022-09-18T00:28:38.666Z,53.80
2022-09-18T00:31:13.362Z,53.80
2022-09-18T00:33:40.951Z,53.80
2022-09-18T00:36:12.558Z,53.80
2022-09-18T00:38:39.953Z,53.80
2022-09-18T00:41:11.591Z,53.70
2022-09-18T00:43:39.226Z,53.70
2022-09-18T00:46:21.514Z,53.60
2022-09-18T00:49:22.631Z,53.60
2022-09-18T00:51:53.941Z,53.60
2022-09-18T00:54:29.477Z,53.60
2022-09-18T00:57:00.509Z,53.60
2022-09-18T00:59:31.129Z,53.50
2022-09-18T01:01:59.303Z,53.50
2022-09-18T01:04:28.044Z,53.50
2022-09-18T01:07:10.624Z,53.50
2022-09-18T01:10:07.160Z,53.50
2022-09-18T01:13:00.498Z,53.60
2022-09-18T01:15:52.986Z,53.60
2022-09-18T01:18:51.784Z,53.50
2022-09-18T01:21:38.756Z,53.60
2022-09-18T01:24:45.566Z,53.60
2022-09-18T01:27:43.558Z,53.60
2022-09-18T01:30:13.152Z,53.60
2022-09-18T01:32:51.048Z,53.60
2022-09-18T01:35:42.484Z,53.60
2022-09-18T01:38:20.937Z,53.60
2022-09-18T01:40:53.476Z,53.60
2022-09-18T01:43:22.269Z,53.60
2022-09-18T01:45:53.221Z,53.60
2022-09-18T01:48:34.084Z,53.60
2022-09-18T01:51:14.309Z,53.60
2022-09-18T01:53:46.307Z,53.60
2022-09-18T01:56:22.409Z,53.60
2022-09-18T01:58:53.655Z,53.60
2022-09-18T02:01:23.200Z,53.60
2022-09-18T02:03:56.613Z,53.60
2022-09-18T02:06:32.546Z,53.70
2022-09-18T02:09:01.337Z,53.70
2022-09-18T02:11:29.703Z,53.60
2022-09-18T02:14:11.180Z,53.70
2022-09-18T02:16:44.522Z,53.60
2022-09-18T02:19:25.996Z,53.70
2022-09-18T02:21:56.134Z,53.70
2022-09-18T02:24:28.619Z,53.70
2022-09-18T02:26:57.298Z,53.70
2022-09-18T02:29:25.986Z,53.70
2022-09-18T02:31:53.401Z,53.70
2022-09-18T02:34:21.647Z,53.70
2022-09-18T02:37:19.702Z,53.70
2022-09-18T02:40:22.209Z,53.70
2022-09-18T02:43:11.174Z,53.70
2022-09-18T02:45:53.592Z,53.60
2022-09-18T02:48:37.677Z,53.60
2022-09-18T02:51:28.739Z,53.50
2022-09-18T02:54:20.055Z,53.50
2022-09-18T02:56:56.243Z,53.40
2022-09-18T02:59:37.025Z,53.40
2022-09-18T03:02:06.843Z,53.30
2022-09-18T03:04:34.411Z,53.30
2022-09-18T03:07:01.445Z,53.30
2022-09-18T03:09:30.066Z,53.30
2022-09-18T03:11:57.084Z,53.30
2022-09-18T03:14:24.124Z,53.30
2022-09-18T03:16:51.368Z,53.30
2022-09-18T03:19:18.668Z,53.40
2022-09-18T03:21:46.343Z,53.10
2022-09-18T03:24:13.338Z,52.60
2022-09-18T03:26:40.741Z,52.10
2022-09-18T03:29:09.331Z,51.40
2022-09-18T03:31:36.588Z,50.90
2022-09-18T03:34:04.262Z,50.70
2022-09-18T03:36:31.570Z,50.70
2022-09-18T03:38:58.698Z,50.80
2022-09-18T03:41:25.756Z,50.90
2022-09-18T03:43:53.096Z,51.00
2022-09-18T03:46:23.713Z,51.00
2022-09-18T03:48:51.790Z,51.00
2022-09-18T03:51:20.133Z,51.10
2022-09-18T03:53:49.033Z,51.00
2022-09-18T03:56:16.201Z,51.10
2022-09-18T03:58:43.288Z,51.00
2022-09-18T04:01:12.077Z,51.10
2022-09-18T04:03:39.515Z,51.10
2022-09-18T04:06:07.483Z,51.10
2022-09-18T04:08:35.065Z,51.20
2022-09-18T04:11:04.604Z,51.10
2022-09-18T04:13:32.830Z,51.20
2022-09-18T04:15:59.944Z,51.20
2022-09-18T04:18:26.960Z,51.20
2022-09-18T04:20:54.051Z,51.20
2022-09-18T04:23:21.207Z,51.20
2022-09-18T04:25:48.398Z,51.20
2022-09-18T04:28:15.416Z,51.20
2022-09-18T04:30:42.596Z,51.20
2022-09-18T04:33:09.637Z,51.30
2022-09-18T04:35:36.690Z,51.30
2022-09-18T04:38:04.168Z,51.20
2022-09-18T04:40:31.534Z,51.20
2022-09-18T04:42:59.043Z,51.20
2022-09-18T04:45:29.173Z,51.20
2022-09-18T04:47:56.172Z,51.60
2022-09-18T04:50:23.185Z,51.00
2022-09-18T04:52:50.231Z,50.90
2022-09-18T04:55:17.366Z,50.80
2022-09-18T04:57:45.165Z,50.80
2022-09-18T05:00:12.532Z,50.70
2022-09-18T05:02:39.791Z,51.20
2022-09-18T05:05:07.059Z,51.10
2022-09-18T05:07:34.136Z,50.50
2022-09-18T05:10:01.179Z,50.50
2022-09-18T05:12:28.289Z,50.50
2022-09-18T05:14:55.592Z,50.50
2022-09-18T05:17:23.141Z,50.40
2022-09-18T05:19:50.184Z,50.50
2022-09-18T05:22:17.238Z,50.50
2022-09-18T05:24:44.237Z,50.50
2022-09-18T05:27:11.271Z,50.50
2022-09-18T05:29:38.319Z,50.50
2022-09-18T05:32:06.305Z,50.50
2022-09-18T05:34:33.820Z,50.60
2022-09-18T05:37:00.875Z,50.50
2022-09-18T05:39:27.912Z,50.50
2022-09-18T05:41:54.962Z,50.50
2022-09-18T05:44:21.943Z,50.50
2022-09-18T05:46:49.139Z,50.50
2022-09-18T05:49:16.205Z,50.40
2022-09-18T05:51:44.802Z,50.50
2022-09-18T05:54:12.176Z,50.50
2022-09-18T05:56:39.314Z,50.40
2022-09-18T05:59:06.338Z,50.40
2022-09-18T06:01:33.586Z,50.40
2022-09-18T06:04:02.793Z,50.30
2022-09-18T06:06:30.299Z,50.30
2022-09-18T06:08:57.777Z,50.30
2022-09-18T06:11:24.830Z,50.30
2022-09-18T06:13:52.679Z,50.30
2022-09-18T06:16:20.533Z,50.30
2022-09-18T06:18:47.689Z,50.20
2022-09-18T06:21:15.221Z,50.30
2022-09-18T06:23:42.837Z,50.20
2022-09-18T06:26:14.783Z,50.20
2022-09-18T06:28:42.239Z,50.20
2022-09-18T06:31:09.899Z,50.20
2022-09-18T06:33:37.130Z,50.10
2022-09-18T06:36:08.940Z,50.10
2022-09-18T06:38:36.136Z,50.10
2022-09-18T06:41:03.192Z,50.10
2022-09-18T06:43:30.258Z,50.00
2022-09-18T06:45:58.531Z,50.10
2022-09-18T06:48:26.128Z,50.10
2022-09-18T06:50:54.754Z,50.10
2022-09-18T06:53:22.284Z,50.10
2022-09-18T06:55:50.165Z,50.00
2022-09-18T06:58:18.807Z,50.00
2022-09-18T07:00:46.720Z,50.60
2022-09-18T07:03:13.911Z,49.90
2022-09-18T07:05:43.057Z,49.90
2022-09-18T07:08:10.421Z,49.90
2022-09-18T07:10:38.207Z,49.80
2022-09-18T07:13:05.293Z,49.80
2022-09-18T07:15:32.665Z,49.90
2022-09-18T07:18:02.066Z,49.80
2022-09-18T07:20:29.878Z,49.80
2022-09-18T07:23:02.041Z,49.90
2022-09-18T07:25:31.473Z,49.70
2022-09-18T07:28:08.123Z,49.80
2022-09-18T07:30:36.790Z,49.80
2022-09-18T07:33:06.147Z,49.70
2022-09-18T07:35:33.311Z,49.80
2022-09-18T07:38:01.162Z,49.70
2022-09-18T07:40:28.614Z,49.70
2022-09-18T07:43:00.890Z,49.80
2022-09-18T07:45:28.340Z,49.80
2022-09-18T07:47:55.609Z,49.70
2022-09-18T07:50:23.572Z,49.80
2022-09-18T07:52:56.521Z,49.70
2022-09-18T07:55:25.319Z,49.80
2022-09-18T07:57:57.920Z,49.70
2022-09-18T08:00:26.931Z,49.70
2022-09-18T08:03:09.965Z,49.70
2022-09-18T08:05:37.480Z,49.70
2022-09-18T08:08:09.983Z,49.70
2022-09-18T08:10:37.382Z,49.70
2022-09-18T08:13:04.773Z,49.70
2022-09-18T08:15:32.945Z,49.70
2022-09-18T08:18:00.949Z,49.60
2022-09-18T08:20:28.158Z,49.60
2022-09-18T08:22:55.357Z,49.60
2022-09-18T08:25:23.301Z,49.60
2022-09-18T08:27:50.433Z,49.60
2022-09-18T08:30:17.691Z,49.60
2022-09-18T08:32:44.832Z,49.60
2022-09-18T08:35:11.859Z,49.50
2022-09-18T08:37:39.011Z,49.50
2022-09-18T08:40:09.134Z,49.50
2022-09-18T08:42:55.905Z,49.50
2022-09-18T08:45:47.348Z,49.40
2022-09-18T08:48:22.648Z,49.40
2022-09-18T08:50:58.456Z,49.40
2022-09-18T08:53:34.279Z,49.40
2022-09-18T08:56:04.651Z,49.40
2022-09-18T08:58:46.043Z,49.40
2022-09-18T09:01:18.120Z,49.40
2022-09-18T09:04:08.154Z,49.30
2022-09-18T09:07:14.862Z,49.30
2022-09-18T09:10:07.207Z,49.30
2022-09-18T09:13:13.981Z,49.20
2022-09-18T09:15:59.473Z,49.20
2022-09-18T09:18:35.344Z,49.10
2022-09-18T09:21:24.081Z,49.10
2022-09-18T09:24:24.811Z,49.10
2022-09-18T09:26:53.818Z,49.00
2022-09-18T09:29:29.363Z,49.00
2022-09-18T09:32:18.745Z,48.90
2022-09-18T09:34:53.388Z,49.00
2022-09-18T09:37:31.706Z,48.90
2022-09-18T09:40:05.898Z,48.90
2022-09-18T09:42:47.557Z,48.80
2022-09-18T09:45:39.203Z,48.80
2022-09-18T09:48:26.636Z,48.80
2022-09-18T09:51:03.315Z,48.70
2022-09-18T09:53:30.587Z,48.70
2022-09-18T09:56:14.798Z,48.70
2022-09-18T09:59:03.002Z,48.60
2022-09-18T10:01:41.008Z,48.60
2022-09-18T10:04:38.159Z,48.60
2022-09-18T10:07:17.846Z,48.60
2022-09-18T10:10:16.354Z,48.50
2022-09-18T10:12:53.603Z,48.50
2022-09-18T10:15:38.934Z,48.40
2022-09-18T10:18:16.369Z,48.40
2022-09-18T10:20:45.909Z,48.40
2022-09-18T10:23:20.774Z,48.40
2022-09-18T10:25:55.848Z,48.30
2022-09-18T10:28:25.867Z,48.30
2022-09-18T10:31:09.601Z,48.20
2022-09-18T10:33:42.582Z,48.00
2022-09-18T10:36:20.133Z,47.90
2022-09-18T10:38:47.699Z,47.80
2022-09-18T10:41:36.063Z,47.70
2022-09-18T10:44:20.963Z,47.60
2022-09-18T10:47:10.235Z,47.50
2022-09-18T10:49:55.089Z,47.40
2022-09-18T10:52:39.198Z,47.30
2022-09-18T10:55:19.511Z,47.10
2022-09-18T10:58:14.873Z,47.10
2022-09-18T11:00:56.709Z,47.10
2022-09-18T11:03:39.595Z,47.20
2022-09-18T11:06:24.085Z,47.30
2022-09-18T11:08:53.273Z,47.30
2022-09-18T11:11:25.974Z,47.30
2022-09-18T11:14:15.706Z,47.20
2022-09-18T11:16:45.757Z,47.20
2022-09-18T11:19:18.649Z,47.10
2022-09-18T11:21:48.351Z,47.10
2022-09-18T11:24:21.764Z,47.10
2022-09-18T11:26:57.465Z,47.00
2022-09-18T11:29:33.001Z,47.10
2022-09-18T11:32:21.327Z,46.90
2022-09-18T11:34:53.194Z,46.90
2022-09-18T11:37:36.563Z,46.90
2022-09-18T11:40:28.071Z,46.80
2022-09-18T11:42:55.997Z,46.70
2022-09-18T11:45:35.042Z,46.70
2022-09-18T11:48:38.515Z,46.60
2022-09-18T11:51:20.831Z,46.50
2022-09-18T11:53:55.458Z,46.50
2022-09-18T11:56:35.916Z,46.50
2022-09-18T11:59:12.105Z,46.50
2022-09-18T12:01:57.737Z,46.60
2022-09-18T12:04:49.521Z,46.50
2022-09-18T12:07:54.988Z,46.60
2022-09-18T12:11:00.114Z,46.50
2022-09-18T12:13:49.098Z,46.50
2022-09-18T12:16:28.533Z,46.50
2022-09-18T12:19:07.965Z,46.40
2022-09-18T12:21:45.339Z,46.50
2022-09-18T12:24:15.155Z,46.50
2022-09-18T12:26:57.516Z,46.40
2022-09-18T12:29:48.929Z,46.40
2022-09-18T12:32:40.097Z,46.20
2022-09-18T12:35:43.351Z,46.40
2022-09-18T12:38:30.297Z,46.50
2022-09-18T12:41:29.020Z,46.50
2022-09-18T12:44:21.385Z,46.40
2022-09-18T12:47:22.215Z,46.40
2022-09-18T12:50:18.292Z,46.40
2022-09-18T12:53:09.758Z,46.40
2022-09-18T12:56:03.391Z,46.30
2022-09-18T12:58:58.239Z,46.30
2022-09-18T13:01:35.006Z,46.30
2022-09-18T13:04:30.521Z,46.40
2022-09-18T13:07:05.311Z,46.50
2022-09-18T13:09:41.114Z,46.50
2022-09-18T13:12:18.276Z,46.40
2022-09-18T13:14:50.923Z,46.40
2022-09-18T13:17:28.631Z,46.40
2022-09-18T13:20:07.423Z,46.40
2022-09-18T13:22:37.339Z,46.40
2022-09-18T13:25:20.297Z,46.40
2022-09-18T13:27:47.585Z,46.40
2022-09-18T13:30:23.156Z,46.40
2022-09-18T13:32:50.221Z,46.30
2022-09-18T13:35:22.310Z,46.30
2022-09-18T13:38:03.314Z,46.30
2022-09-18T13:40:44.636Z,46.30
2022-09-18T13:43:38.839Z,46.30
2022-09-18T13:46:07.557Z,46.30
2022-09-18T13:48:44.678Z,46.30
2022-09-18T13:51:22.144Z,46.30
2022-09-18T13:54:27.792Z,46.30
2022-09-18T13:57:18.950Z,46.30
2022-09-18T13:59:52.604Z,46.20
2022-09-18T14:02:38.270Z,46.20
2022-09-18T14:05:29.738Z,46.20
2022-09-18T14:08:07.812Z,46.10
2022-09-18T14:11:14.223Z,46.20
2022-09-18T14:13:46.420Z,46.20
2022-09-18T14:16:31.069Z,46.20
2022-09-18T14:19:04.710Z,46.30
2022-09-18T14:21:40.846Z,46.20
2022-09-18T14:24:42.065Z,46.00
2022-09-18T14:27:37.317Z,46.00
2022-09-18T14:30:25.170Z,46.10
2022-09-18T14:33:16.876Z,46.00
2022-09-18T14:36:04.797Z,46.00
2022-09-18T14:38:37.906Z,46.00
2022-09-18T14:41:28.575Z,46.20
2022-09-18T14:44:01.295Z,46.20
2022-09-18T14:46:29.248Z,46.10
2022-09-18T14:48:56.564Z,46.20
2022-09-18T14:51:25.943Z,46.30
2022-09-18T14:53:56.227Z,46.30
2022-09-18T14:56:35.562Z,46.40
2022-09-18T14:59:07.510Z,46.40
2022-09-18T15:01:36.945Z,46.50
2022-09-18T15:04:06.855Z,46.40
2022-09-18T15:06:48.465Z,46.40
2022-09-18T15:09:23.689Z,46.40
2022-09-18T15:12:03.691Z,46.40
2022-09-18T15:14:44.046Z,46.40
2022-09-18T15:17:24.638Z,46.40
2022-09-18T15:19:59.205Z,46.40
2022-09-18T15:22:27.706Z,46.40
2022-09-18T15:24:55.367Z,46.40
2022-09-18T15:27:23.991Z,46.50
2022-09-18T15:30:02.414Z,46.50
2022-09-18T15:32:38.454Z,46.40
2022-09-18T15:35:08.926Z,46.50
2022-09-18T15:37:38.439Z,46.60
2022-09-18T15:40:09.389Z,46.60
2022-09-18T15:42:40.216Z,46.60
2022-09-18T15:45:18.364Z,46.70
2022-09-18T15:47:46.089Z,46.70
2022-09-18T15:50:37.337Z,46.80
2022-09-18T15:53:21.913Z,46.80
2022-09-18T15:56:01.229Z,46.80
2022-09-18T15:58:40.845Z,46.80
2022-09-18T16:01:15.884Z,46.90
2022-09-18T16:03:43.161Z,46.90
2022-09-18T16:06:23.321Z,47.00
2022-09-18T16:08:51.442Z,47.00
2022-09-18T16:11:41.658Z,47.10
2022-09-18T16:14:28.384Z,47.20
2022-09-18T16:16:55.475Z,47.40
2022-09-18T16:19:22.583Z,47.30
2022-09-18T16:21:49.633Z,48.00
2022-09-18T16:24:29.863Z,47.50
2022-09-18T16:27:06.834Z,47.50
2022-09-18T16:29:35.067Z,47.60
2022-09-18T16:32:02.285Z,47.70
2022-09-18T16:34:29.858Z,47.70
2022-09-18T16:36:57.076Z,47.80
2022-09-18T16:39:26.272Z,47.80
2022-09-18T16:41:53.747Z,47.90
2022-09-18T16:44:20.776Z,47.90
2022-09-18T16:47:00.856Z,47.90
2022-09-18T16:49:37.437Z,48.00
2022-09-18T16:52:05.326Z,48.10
2022-09-18T16:54:32.806Z,48.10
2022-09-18T16:57:11.602Z,48.20
2022-09-18T16:59:41.617Z,48.20
2022-09-18T17:02:09.526Z,48.30
2022-09-18T17:04:36.546Z,48.30
2022-09-18T17:07:03.929Z,48.30
2022-09-18T17:09:31.579Z,48.40
2022-09-18T17:11:58.828Z,48.40
2022-09-18T17:14:26.229Z,48.40
2022-09-18T17:16:53.892Z,48.50
2022-09-18T17:19:21.016Z,48.60
2022-09-18T17:21:50.768Z,48.60
2022-09-18T17:24:24.094Z,48.50
2022-09-18T17:26:51.367Z,48.60
2022-09-18T17:29:18.443Z,48.60
2022-09-18T17:31:45.561Z,48.70
2022-09-18T17:34:12.657Z,48.70
2022-09-18T17:36:40.318Z,48.80
2022-09-18T17:39:07.800Z,48.80
2022-09-18T17:41:35.011Z,48.90
2022-09-18T17:44:02.589Z,48.90
2022-09-18T17:46:29.682Z,48.90
2022-09-18T17:48:58.519Z,48.90
2022-09-18T17:51:28.688Z,48.90
2022-09-18T17:54:05.459Z,48.90
2022-09-18T17:56:33.685Z,49.00
2022-09-18T17:59:05.648Z,49.00
2022-09-18T18:01:36.370Z,49.10
2022-09-18T18:04:04.661Z,49.10
2022-09-18T18:06:32.525Z,49.10
2022-09-18T18:08:59.618Z,49.20
2022-09-18T18:11:26.935Z,49.10
2022-09-18T18:13:54.818Z,49.20
2022-09-18T18:16:25.160Z,49.20
2022-09-18T18:18:55.330Z,49.20
2022-09-18T18:21:23.052Z,49.30
2022-09-18T18:23:55.920Z,49.30
2022-09-18T18:26:22.996Z,49.30
2022-09-18T18:28:50.417Z,49.30
2022-09-18T18:31:17.893Z,49.30
2022-09-18T18:33:45.098Z,49.30
2022-09-18T18:36:18.927Z,49.30
2022-09-18T18:38:48.318Z,49.30
2022-09-18T18:41:17.218Z,49.30
2022-09-18T18:43:44.840Z,49.30
2022-09-18T18:46:15.583Z,49.40
2022-09-18T18:48:44.107Z,49.30
2022-09-18T18:51:14.575Z,49.30
2022-09-18T18:53:43.067Z,49.40
2022-09-18T18:56:15.339Z,49.30
2022-09-18T18:58:44.248Z,49.40
2022-09-18T19:01:14.819Z,49.40
2022-09-18T19:03:50.908Z,49.40
2022-09-18T19:06:19.100Z,49.40
2022-09-18T19:08:47.518Z,49.40
2022-09-18T19:11:16.495Z,49.40
2022-09-18T19:13:44.774Z,49.50
2022-09-18T19:16:13.343Z,49.50
2022-09-18T19:18:41.295Z,49.50
2022-09-18T19:21:08.448Z,49.50
2022-09-18T19:23:35.736Z,49.50
2022-09-18T19:26:02.932Z,49.50
2022-09-18T19:28:31.114Z,49.50
2022-09-18T19:31:05.188Z,49.60
2022-09-18T19:33:33.801Z,49.60
2022-09-18T19:36:06.399Z,49.60
2022-09-18T19:38:37.098Z,49.60
2022-09-18T19:41:18.839Z,49.60
2022-09-18T19:43:46.534Z,49.70
2022-09-18T19:46:24.311Z,49.70
2022-09-18T19:48:51.820Z,49.70
2022-09-18T19:51:19.365Z,49.70
2022-09-18T19:53:46.441Z,49.80
2022-09-18T19:56:33.161Z,49.80
2022-09-18T19:59:00.689Z,49.80
2022-09-18T20:01:27.680Z,49.80
2022-09-18T20:03:55.076Z,49.90
2022-09-18T20:06:23.050Z,49.90
2022-09-18T20:08:51.467Z,49.90
2022-09-18T20:11:18.809Z,49.90
2022-09-18T20:13:50.657Z,49.90
2022-09-18T20:16:17.959Z,49.90
2022-09-18T20:18:45.622Z,49.90
2022-09-18T20:21:15.108Z,50.00
2022-09-18T20:23:42.431Z,49.90
2022-09-18T20:26:12.262Z,50.00
2022-09-18T20:28:39.762Z,50.00
2022-09-18T20:31:10.318Z,50.00
2022-09-18T20:33:38.111Z,50.60
2022-09-18T20:36:06.685Z,50.60
2022-09-18T20:38:35.511Z,50.00
2022-09-18T20:41:07.106Z,50.00
2022-09-18T20:43:35.847Z,50.00
2022-09-18T20:46:05.489Z,50.00
2022-09-18T20:48:35.129Z,50.00
2022-09-18T20:51:09.810Z,49.90
2022-09-18T20:53:39.373Z,49.90
2022-09-18T20:56:07.474Z,49.90
2022-09-18T20:58:35.337Z,49.90
2022-09-18T21:01:08.470Z,49.90
2022-09-18T21:03:36.131Z,49.90
2022-09-18T21:06:21.976Z,49.90
2022-09-18T21:08:50.725Z,49.90
2022-09-18T21:11:23.042Z,49.90
2022-09-18T21:13:54.402Z,49.90
2022-09-18T21:16:22.351Z,49.90
2022-09-18T21:18:50.304Z,49.90
2022-09-18T21:21:17.896Z,50.00
2022-09-18T21:23:54.601Z,50.00
2022-09-18T21:26:23.264Z,50.00
2022-09-18T21:28:51.642Z,50.00
2022-09-18T21:31:19.208Z,50.00
2022-09-18T21:33:46.875Z,50.00
2022-09-18T21:36:14.355Z,50.00
2022-09-18T21:38:42.317Z,50.10
2022-09-18T21:41:11.966Z,50.00
2022-09-18T21:43:39.125Z,50.10
2022-09-18T21:46:08.647Z,50.10
2022-09-18T21:48:35.800Z,50.00
2022-09-18T21:51:07.793Z,50.00
2022-09-18T21:53:35.255Z,50.10
2022-09-18T21:56:06.587Z,50.10
2022-09-18T21:58:40.069Z,50.70
2022-09-18T22:01:14.474Z,50.10
2022-09-18T22:03:50.606Z,50.20
2022-09-18T22:06:19.375Z,50.10
2022-09-18T22:08:52.523Z,50.10
2022-09-18T22:11:21.843Z,50.20
2022-09-18T22:13:48.960Z,50.20
2022-09-18T22:16:16.176Z,50.20
2022-09-18T22:18:43.241Z,50.20
2022-09-18T22:21:28.901Z,50.20
2022-09-18T22:23:59.123Z,50.20
2022-09-18T22:26:27.155Z,50.20
2022-09-18T22:28:56.660Z,50.20
2022-09-18T22:31:24.980Z,50.20
2022-09-18T22:33:57.761Z,50.20
2022-09-18T22:36:25.784Z,50.30
2022-09-18T22:38:53.781Z,50.20
2022-09-18T22:41:21.424Z,50.30
2022-09-18T22:43:53.186Z,50.30
2022-09-18T22:46:20.287Z,50.30
2022-09-18T22:48:47.575Z,50.20
2022-09-18T22:51:17.941Z,50.20
2022-09-18T22:53:57.447Z,50.20
2022-09-18T22:56:26.375Z,50.20
2022-09-18T22:58:54.850Z,50.20
2022-09-18T23:01:32.058Z,50.20
2022-09-18T23:04:02.589Z,50.10
2022-09-18T23:06:31.309Z,50.10
2022-09-18T23:09:00.170Z,50.10
2022-09-18T23:11:29.855Z,50.10
2022-09-18T23:14:00.046Z,50.10
2022-09-18T23:16:28.135Z,50.00
2022-09-18T23:18:58.511Z,50.00
2022-09-18T23:21:27.228Z,50.10
2022-09-18T23:23:55.786Z,50.10
2022-09-18T23:26:25.516Z,50.10
2022-09-18T23:28:54.610Z,50.10
2022-09-18T23:31:25.796Z,50.10
2022-09-18T23:33:55.732Z,50.10
2022-09-18T23:36:25.485Z,50.20
2022-09-18T23:38:58.776Z,50.10
2022-09-18T23:41:26.848Z,50.10
2022-09-18T23:43:54.458Z,50.10
2022-09-18T23:46:22.782Z,50.20
2022-09-18T23:48:55.160Z,50.20
2022-09-18T23:51:24.542Z,50.20
2022-09-18T23:53:52.325Z,50.20
2022-09-18T23:56:19.348Z,50.20
2022-09-18T23:58:46.624Z,50.20
